createdAt,value
2022-10-18T00:00:47.318Z,20.79
2022-10-18T00:01:50.781Z,19.66
2022-10-18T00:02:53.695Z,21.01
2022-10-18T00:03:56.527Z,20.39
2022-10-18T00:04:59.503Z,21.18
2022-10-18T00:06:03.186Z,21.01
2022-10-18T00:07:06.148Z,20.15
2022-10-18T00:08:09.053Z,21.76
2022-10-18T00:09:12.105Z,19.94
2022-10-18T00:10:15.545Z,19.97
2022-10-18T00:11:18.395Z,21.14
2022-10-18T00:12:21.369Z,20.38
2022-10-18T00:13:24.655Z,20.15
2022-10-18T00:14:27.496Z,18.60
2022-10-18T00:15:30.454Z,18.64
2022-10-18T00:16:33.406Z,19.97
2022-10-18T00:17:38.078Z,18.71
2022-10-18T00:18:41.423Z,19.51
2022-10-18T00:19:44.578Z,17.71
2022-10-18T00:20:56.377Z,17.30
2022-10-18T00:21:59.534Z,17.42
2022-10-18T00:23:02.542Z,18.48
2022-10-18T00:24:05.861Z,17.32
2022-10-18T00:25:09.594Z,16.59
2022-10-18T00:26:15.989Z,17.15
2022-10-18T00:27:19.392Z,17.13
2022-10-18T00:28:22.599Z,17.07
2022-10-18T00:29:25.715Z,17.61
2022-10-18T00:30:28.673Z,15.66
2022-10-18T00:31:34.926Z,15.51
2022-10-18T00:32:38.830Z,15.08
2022-10-18T00:33:44.010Z,14.41
2022-10-18T00:34:47.036Z,14.31
2022-10-18T00:35:50.228Z,14.25
2022-10-18T00:36:54.573Z,13.73
2022-10-18T00:37:57.552Z,13.62
2022-10-18T00:39:01.682Z,12.73
2022-10-18T00:40:05.495Z,13.22
2022-10-18T00:41:11.362Z,13.77
2022-10-18T00:42:19.499Z,12.83
2022-10-18T00:43:22.479Z,12.43
2022-10-18T00:44:28.981Z,13.10
2022-10-18T00:45:32.118Z,14.02
2022-10-18T00:46:37.915Z,13.46
2022-10-18T00:47:42.051Z,13.16
2022-10-18T00:48:45.268Z,12.78
2022-10-18T00:49:51.848Z,13.75
2022-10-18T00:50:54.908Z,13.91
2022-10-18T00:52:04.600Z,13.91
2022-10-18T00:53:11.128Z,13.36
2022-10-18T00:54:16.242Z,13.44
2022-10-18T00:55:20.016Z,12.43
2022-10-18T00:56:23.037Z,12.39
2022-10-18T00:57:26.294Z,12.13
2022-10-18T00:58:29.323Z,12.97
2022-10-18T00:59:33.287Z,12.73
2022-10-18T01:00:38.156Z,12.11
2022-10-18T01:01:41.312Z,11.11
2022-10-18T01:02:46.038Z,11.99
2022-10-18T01:03:50.548Z,11.69
2022-10-18T01:04:53.536Z,11.69
2022-10-18T01:05:56.670Z,12.19
2022-10-18T01:07:03.052Z,12.72
2022-10-18T01:08:18.446Z,12.42
2022-10-18T01:09:24.961Z,12.10
2022-10-18T01:10:37.611Z,13.84
2022-10-18T01:11:50.029Z,13.49
2022-10-18T01:13:12.912Z,12.73
2022-10-18T01:15:52.021Z,13.41
2022-10-18T01:17:10.311Z,14.72
2022-10-18T01:18:19.590Z,14.49
2022-10-18T01:19:34.928Z,15.12
2022-10-18T01:20:56.466Z,14.79
2022-10-18T01:22:08.769Z,15.11
2022-10-18T01:23:31.737Z,16.00
2022-10-18T01:24:50.401Z,15.36
2022-10-18T01:26:13.326Z,14.74
2022-10-18T01:27:25.693Z,15.37
2022-10-18T01:29:05.750Z,16.14
2022-10-18T01:30:37.662Z,14.89
2022-10-18T01:31:47.312Z,14.77
2022-10-18T01:32:56.930Z,14.42
2022-10-18T01:34:06.561Z,15.79
2022-10-18T01:35:13.087Z,15.24
2022-10-18T01:36:22.792Z,16.11
2022-10-18T01:37:27.802Z,14.69
2022-10-18T01:38:33.542Z,15.44
2022-10-18T01:39:39.682Z,15.19
2022-10-18T01:40:45.795Z,15.04
2022-10-18T01:41:51.412Z,14.47
2022-10-18T01:42:54.938Z,14.99
2022-10-18T01:44:00.295Z,15.26
2022-10-18T01:45:07.350Z,15.02
2022-10-18T01:46:13.933Z,15.42
2022-10-18T01:47:17.968Z,15.66
2022-10-18T01:48:21.355Z,15.66
2022-10-18T01:49:25.039Z,15.52
2022-10-18T01:50:33.661Z,14.90
2022-10-18T01:51:36.829Z,16.21
2022-10-18T01:52:50.118Z,15.37
2022-10-18T01:53:53.431Z,14.64
2022-10-18T01:54:58.355Z,14.04
2022-10-18T01:56:20.165Z,14.43
2022-10-18T01:57:30.098Z,15.48
2022-10-18T01:58:48.557Z,15.87
2022-10-18T01:59:58.266Z,14.70
2022-10-18T02:02:20.329Z,15.69
2022-10-18T02:03:26.077Z,14.52
2022-10-18T02:04:44.722Z,14.67
2022-10-18T02:06:03.624Z,14.48
2022-10-18T02:07:10.266Z,13.62
2022-10-18T02:08:32.077Z,13.80
2022-10-18T02:09:42.172Z,13.35
2022-10-18T02:10:48.705Z,12.60
2022-10-18T02:11:54.291Z,12.42
2022-10-18T02:12:58.936Z,12.69
2022-10-18T02:14:08.326Z,12.62
2022-10-18T02:15:14.803Z,11.46
2022-10-18T02:16:24.109Z,11.62
2022-10-18T02:17:29.591Z,11.89
2022-10-18T02:18:36.176Z,12.01
2022-10-18T02:19:45.667Z,11.82
2022-10-18T02:20:49.409Z,11.33
2022-10-18T02:21:54.512Z,11.41
2022-10-18T02:23:00.305Z,12.38
2022-10-18T02:24:05.069Z,12.62
2022-10-18T02:25:11.782Z,11.67
2022-10-18T02:26:15.744Z,11.20
2022-10-18T02:27:18.892Z,11.32
2022-10-18T02:28:22.266Z,12.23
2022-10-18T02:29:25.430Z,11.34
2022-10-18T02:30:34.870Z,11.33
2022-10-18T02:31:41.431Z,11.23
2022-10-18T02:33:00.162Z,11.44
2022-10-18T02:34:18.153Z,11.11
2022-10-18T02:35:27.520Z,11.10
2022-10-18T02:36:40.161Z,11.44
2022-10-18T02:37:44.747Z,11.33
2022-10-18T02:38:49.893Z,12.37
2022-10-18T02:39:52.758Z,12.89
2022-10-18T02:40:55.681Z,13.14
2022-10-18T02:41:59.183Z,14.09
2022-10-18T02:43:04.026Z,13.72
2022-10-18T02:44:06.919Z,14.46
2022-10-18T02:45:11.247Z,14.43
2022-10-18T02:46:14.548Z,14.72
2022-10-18T02:47:17.904Z,14.06
2022-10-18T02:48:20.882Z,16.66
2022-10-18T02:49:23.800Z,15.76
2022-10-18T02:50:26.742Z,16.12
2022-10-18T02:51:29.753Z,16.28
2022-10-18T02:52:32.782Z,15.85
2022-10-18T02:53:36.013Z,16.88
2022-10-18T02:54:39.094Z,17.56
2022-10-18T02:55:42.093Z,18.14
2022-10-18T02:56:45.062Z,20.12
2022-10-18T02:57:48.028Z,18.98
2022-10-18T02:58:51.004Z,19.45
2022-10-18T02:59:54.296Z,19.68
2022-10-18T03:00:57.354Z,20.51
2022-10-18T03:02:00.338Z,20.62
2022-10-18T03:03:03.323Z,20.40
2022-10-18T03:04:06.250Z,20.22
2022-10-18T03:05:09.236Z,20.73
2022-10-18T03:06:13.322Z,21.15
2022-10-18T03:07:16.299Z,21.20
2022-10-18T03:08:19.667Z,20.32
2022-10-18T03:09:22.550Z,21.36
2022-10-18T03:10:25.533Z,20.29
2022-10-18T03:11:28.488Z,21.73
2022-10-18T03:12:31.505Z,22.93
2022-10-18T03:13:34.594Z,21.29
2022-10-18T03:14:37.563Z,21.66
2022-10-18T03:15:40.730Z,20.68
2022-10-18T03:16:43.697Z,21.98
2022-10-18T03:17:46.859Z,21.91
2022-10-18T03:18:49.923Z,21.84
2022-10-18T03:19:52.914Z,21.57
2022-10-18T03:20:55.967Z,20.09
2022-10-18T03:21:58.945Z,20.75
2022-10-18T03:23:02.854Z,21.57
2022-10-18T03:24:06.550Z,21.88
2022-10-18T03:25:09.473Z,21.37
2022-10-18T03:26:12.559Z,22.34
2022-10-18T03:27:15.584Z,22.24
2022-10-18T03:28:18.837Z,21.91
2022-10-18T03:29:21.846Z,23.26
2022-10-18T03:30:24.804Z,22.24
2022-10-18T03:31:27.897Z,21.29
2022-10-18T03:32:31.376Z,21.17
2022-10-18T03:33:34.546Z,21.19
2022-10-18T03:34:37.491Z,21.34
2022-10-18T03:35:40.462Z,21.78
2022-10-18T03:36:43.690Z,21.39
2022-10-18T03:37:46.794Z,22.66
2022-10-18T03:38:49.720Z,23.49
2022-10-18T03:39:52.820Z,21.31
2022-10-18T03:40:55.899Z,23.69
2022-10-18T03:41:59.122Z,22.44
2022-10-18T03:43:02.174Z,22.85
2022-10-18T03:44:05.184Z,21.90
2022-10-18T03:45:08.766Z,21.61
2022-10-18T03:46:12.171Z,22.85
2022-10-18T03:47:15.593Z,22.39
2022-10-18T03:48:18.749Z,22.90
2022-10-18T03:49:21.906Z,22.27
2022-10-18T03:50:24.911Z,22.36
2022-10-18T03:51:27.880Z,22.49
2022-10-18T03:52:31.140Z,21.61
2022-10-18T03:53:34.347Z,21.27
2022-10-18T03:54:37.536Z,22.71
2022-10-18T03:55:40.713Z,23.31
2022-10-18T03:56:43.981Z,21.07
2022-10-18T03:57:47.194Z,22.32
2022-10-18T03:58:50.315Z,21.74
2022-10-18T03:59:53.290Z,21.21
2022-10-18T04:00:56.342Z,21.48
2022-10-18T04:01:59.494Z,22.82
2022-10-18T04:03:02.489Z,20.76
2022-10-18T04:04:05.342Z,21.74
2022-10-18T04:05:09.052Z,20.96
2022-10-18T04:06:12.713Z,22.83
2022-10-18T04:07:15.642Z,21.84
2022-10-18T04:08:19.008Z,21.85
2022-10-18T04:09:22.012Z,22.22
2022-10-18T04:10:24.870Z,22.60
2022-10-18T04:11:28.016Z,20.87
2022-10-18T04:12:31.177Z,20.94
2022-10-18T04:13:34.831Z,21.27
2022-10-18T04:14:37.795Z,21.20
2022-10-18T04:15:40.767Z,20.87
2022-10-18T04:16:43.831Z,21.36
2022-10-18T04:17:47.127Z,20.78
2022-10-18T04:18:50.135Z,19.82
2022-10-18T04:19:53.078Z,20.71
2022-10-18T04:20:56.163Z,20.89
2022-10-18T04:21:59.111Z,20.56
2022-10-18T04:23:02.041Z,20.59
2022-10-18T04:24:05.655Z,20.09
2022-10-18T04:25:08.795Z,20.48
2022-10-18T04:26:12.007Z,19.09
2022-10-18T04:27:14.970Z,19.82
2022-10-18T04:28:18.269Z,19.36
2022-10-18T04:29:21.374Z,20.03
2022-10-18T04:30:24.361Z,20.44
2022-10-18T04:31:27.468Z,20.34
2022-10-18T04:32:30.667Z,19.82
2022-10-18T04:33:33.818Z,20.97
2022-10-18T04:34:36.947Z,21.73
2022-10-18T04:35:40.072Z,22.06
2022-10-18T04:36:43.340Z,21.81
2022-10-18T04:37:46.559Z,23.33
2022-10-18T04:38:49.599Z,24.21
2022-10-18T04:39:53.722Z,24.79
2022-10-18T04:40:57.249Z,22.99
2022-10-18T04:42:00.229Z,23.93
2022-10-18T04:43:03.296Z,21.96
2022-10-18T04:44:06.404Z,21.51
2022-10-18T04:45:10.157Z,22.64
2022-10-18T04:46:13.616Z,22.17
2022-10-18T04:47:16.752Z,21.01
2022-10-18T04:48:19.950Z,21.54
2022-10-18T04:49:22.905Z,20.86
2022-10-18T04:50:25.979Z,21.62
2022-10-18T04:51:29.907Z,19.96
2022-10-18T04:52:32.989Z,20.38
2022-10-18T04:53:36.122Z,20.34
2022-10-18T04:54:39.336Z,19.81
2022-10-18T04:55:49.880Z,19.68
2022-10-18T04:56:52.893Z,19.01
2022-10-18T04:57:55.977Z,19.71
2022-10-18T04:58:59.417Z,19.40
2022-10-18T05:00:03.240Z,20.18
2022-10-18T05:01:06.958Z,19.32
2022-10-18T05:02:10.045Z,18.70
2022-10-18T05:03:13.752Z,19.45
2022-10-18T05:04:16.734Z,19.55
2022-10-18T05:05:19.711Z,19.48
2022-10-18T05:06:23.083Z,19.65
2022-10-18T05:07:26.170Z,19.27
2022-10-18T05:08:29.817Z,19.56
2022-10-18T05:09:33.396Z,20.19
2022-10-18T05:10:36.550Z,19.11
2022-10-18T05:11:39.539Z,19.91
2022-10-18T05:12:43.362Z,19.09
2022-10-18T05:13:48.660Z,20.55
2022-10-18T05:14:50.998Z,20.46
2022-10-18T05:15:53.856Z,20.04
2022-10-18T05:16:56.835Z,21.72
2022-10-18T05:17:59.778Z,21.16
2022-10-18T05:19:05.099Z,19.94
2022-10-18T05:20:08.664Z,22.79
2022-10-18T05:21:11.986Z,22.24
2022-10-18T05:22:14.982Z,21.78
2022-10-18T05:23:18.037Z,22.34
2022-10-18T05:24:23.024Z,22.73
2022-10-18T05:25:25.930Z,23.99
2022-10-18T05:26:28.899Z,22.21
2022-10-18T05:27:31.747Z,21.39
2022-10-18T05:28:39.508Z,22.54
2022-10-18T05:29:39.780Z,22.13
2022-10-18T05:30:44.458Z,21.28
2022-10-18T05:31:48.803Z,22.91
2022-10-18T05:32:51.809Z,21.71
2022-10-18T05:33:54.758Z,21.16
2022-10-18T05:34:57.744Z,20.68
2022-10-18T05:36:00.947Z,21.19
2022-10-18T05:37:03.916Z,21.34
2022-10-18T05:38:06.759Z,19.86
2022-10-18T05:39:09.764Z,21.14
2022-10-18T05:40:13.532Z,20.92
2022-10-18T05:41:16.504Z,20.21
2022-10-18T05:42:19.425Z,20.01
2022-10-18T05:43:22.403Z,20.01
2022-10-18T05:44:25.426Z,20.02
2022-10-18T05:45:28.404Z,20.22
2022-10-18T05:46:31.874Z,20.26
2022-10-18T05:48:37.751Z,20.41
2022-10-18T05:49:40.956Z,20.66
2022-10-18T05:50:45.592Z,20.71
2022-10-18T05:51:48.787Z,20.84
2022-10-18T05:52:53.804Z,20.24
2022-10-18T05:53:56.877Z,21.20
2022-10-18T05:54:59.999Z,21.23
2022-10-18T05:56:02.973Z,21.90
2022-10-18T05:57:06.049Z,20.51
2022-10-18T05:58:09.129Z,21.80
2022-10-18T05:59:12.665Z,21.97
2022-10-18T06:00:19.753Z,21.86
2022-10-18T06:01:23.032Z,19.82
2022-10-18T06:02:26.070Z,20.93
2022-10-18T06:03:30.231Z,20.87
2022-10-18T06:04:34.244Z,20.21
2022-10-18T06:05:37.229Z,21.82
2022-10-18T06:06:40.389Z,21.85
2022-10-18T06:07:43.339Z,20.96
2022-10-18T06:08:49.062Z,19.78
2022-10-18T06:09:52.074Z,20.49
2022-10-18T06:10:55.273Z,20.77
2022-10-18T06:11:58.272Z,20.52
2022-10-18T06:13:01.248Z,20.48
2022-10-18T06:14:04.709Z,19.91
2022-10-18T06:15:08.041Z,20.76
2022-10-18T06:16:12.748Z,20.29
2022-10-18T06:17:15.796Z,19.55
2022-10-18T06:18:18.806Z,20.29
2022-10-18T06:19:24.191Z,21.40
2022-10-18T06:20:27.303Z,21.35
2022-10-18T06:21:30.371Z,21.33
2022-10-18T06:22:41.645Z,20.66
2022-10-18T06:23:50.640Z,20.89
2022-10-18T06:24:57.144Z,21.29
2022-10-18T06:26:02.558Z,21.52
2022-10-18T06:27:07.495Z,20.96
2022-10-18T06:28:12.195Z,20.32
2022-10-18T06:29:15.539Z,20.94
2022-10-18T06:30:18.887Z,20.77
2022-10-18T06:31:21.907Z,21.16
2022-10-18T06:32:24.994Z,20.51
2022-10-18T06:33:29.754Z,21.16
2022-10-18T06:34:33.260Z,21.71
2022-10-18T06:35:36.240Z,21.81
2022-10-18T06:36:39.230Z,21.71
2022-10-18T07:26:42.026Z,17.96
2022-10-18T07:27:45.248Z,16.73
2022-10-18T07:28:51.395Z,17.26
2022-10-18T07:29:54.435Z,17.27
2022-10-18T07:31:00.278Z,17.72
2022-10-18T07:32:02.565Z,17.00
2022-10-18T07:33:05.575Z,16.08
2022-10-18T07:34:11.717Z,17.13
2022-10-18T07:35:14.782Z,17.52
2022-10-18T07:36:18.773Z,17.32
2022-10-18T07:37:24.414Z,18.07
2022-10-18T07:38:26.621Z,17.81
2022-10-18T07:39:29.622Z,17.36
2022-10-18T07:40:32.720Z,18.38
2022-10-18T07:41:36.033Z,19.41
2022-10-18T07:42:39.045Z,18.37
2022-10-18T07:43:45.324Z,18.42
2022-10-18T07:44:48.321Z,17.77
2022-10-18T07:45:52.579Z,16.50
2022-10-18T07:46:55.598Z,18.29
2022-10-18T07:47:58.708Z,16.76
2022-10-18T07:49:01.791Z,16.27
2022-10-18T07:50:05.658Z,16.18
2022-10-18T07:51:08.978Z,16.72
2022-10-18T07:52:11.991Z,17.20
2022-10-18T07:53:15.036Z,17.24
2022-10-18T07:54:18.174Z,16.14
2022-10-18T07:55:21.190Z,17.39
2022-10-18T07:56:24.486Z,15.41
2022-10-18T07:57:27.561Z,15.80
2022-10-18T07:58:33.027Z,17.20
2022-10-18T07:59:36.403Z,15.37
2022-10-18T08:00:39.975Z,15.89
2022-10-18T08:01:43.034Z,15.19
2022-10-18T08:02:46.245Z,15.06
2022-10-18T08:03:49.653Z,15.68
2022-10-18T08:04:52.654Z,14.83
2022-10-18T08:05:55.633Z,14.99
2022-10-18T08:06:58.761Z,14.14
2022-10-18T08:08:04.337Z,14.59
2022-10-18T08:09:06.987Z,15.19
2022-10-18T08:10:10.693Z,15.47
2022-10-18T08:11:16.782Z,14.68
2022-10-18T08:12:19.911Z,15.08
2022-10-18T08:13:22.914Z,15.23
2022-10-18T08:14:25.991Z,14.71
2022-10-18T08:15:28.910Z,15.11
2022-10-18T08:17:35.916Z,13.49
2022-10-18T08:18:39.360Z,13.94
2022-10-18T08:19:52.849Z,14.93
2022-10-18T08:20:47.175Z,15.77
2022-10-18T08:21:50.287Z,16.81
2022-10-18T08:22:57.709Z,18.27
2022-10-18T08:23:58.376Z,17.51
2022-10-18T08:25:01.348Z,16.89
2022-10-18T08:26:06.829Z,17.48
2022-10-18T08:27:09.888Z,17.55
2022-10-18T08:28:16.947Z,15.98
2022-10-18T08:29:25.841Z,16.76
2022-10-18T08:30:25.078Z,17.22
2022-10-18T08:31:28.076Z,16.77
2022-10-18T08:32:31.816Z,17.49
2022-10-18T08:33:35.713Z,16.26
2022-10-18T08:35:41.854Z,16.54
2022-10-18T08:36:44.918Z,16.41
2022-10-18T08:37:48.002Z,15.43
2022-10-18T08:38:51.297Z,15.58
2022-10-18T08:39:54.409Z,13.45
2022-10-18T08:42:21.373Z,12.71
2022-10-18T08:43:43.105Z,12.83
2022-10-18T08:44:48.555Z,10.93
2022-10-18T08:45:54.141Z,8.96
2022-10-18T08:47:22.060Z,8.13
2022-10-18T08:48:37.605Z,6.79
2022-10-18T08:49:47.548Z,6.03
2022-10-18T08:50:52.801Z,6.04
2022-10-18T08:51:57.258Z,6.58
2022-10-18T08:53:06.969Z,6.36
2022-10-18T08:54:22.721Z,5.98
2022-10-18T08:55:41.323Z,4.84
2022-10-18T08:56:47.887Z,4.86
2022-10-18T08:57:51.489Z,6.11
2022-10-18T08:58:54.632Z,5.37
2022-10-18T08:59:57.702Z,6.01
2022-10-18T09:01:37.772Z,5.89
2022-10-18T09:03:01.157Z,5.96
2022-10-18T09:04:25.487Z,7.27
2022-10-18T09:05:46.786Z,8.48
2022-10-18T09:07:25.076Z,8.35
2022-10-18T09:08:34.613Z,8.77
2022-10-18T09:09:57.845Z,5.52
2022-10-18T09:11:22.610Z,5.00
2022-10-18T09:13:02.786Z,5.05
2022-10-18T09:14:21.383Z,4.66
2022-10-18T09:15:53.823Z,4.73
2022-10-18T09:17:15.873Z,4.44
2022-10-18T09:18:35.553Z,4.57
2022-10-18T09:19:55.324Z,5.08
2022-10-18T09:21:00.160Z,4.13
2022-10-18T09:22:09.773Z,3.52
2022-10-18T09:23:40.052Z,3.59
2022-10-18T09:24:58.540Z,4.27
2022-10-18T09:26:07.742Z,3.62
2022-10-18T09:27:16.763Z,3.44
2022-10-18T09:28:23.423Z,3.85
2022-10-18T09:29:48.412Z,3.52
2022-10-18T09:31:20.821Z,3.41
2022-10-18T09:32:30.542Z,3.41
2022-10-18T09:33:44.342Z,3.61
2022-10-18T09:36:27.000Z,3.79
2022-10-18T09:37:33.283Z,3.67
2022-10-18T09:38:49.012Z,4.82
2022-10-18T09:39:55.661Z,4.04
2022-10-18T09:41:02.234Z,4.20
2022-10-18T09:42:28.292Z,4.16
2022-10-18T09:43:52.904Z,3.56
2022-10-18T09:45:02.411Z,3.82
2022-10-18T09:46:06.779Z,4.25
2022-10-18T09:47:21.986Z,4.39
2022-10-18T09:48:31.664Z,4.33
2022-10-18T09:49:38.219Z,4.66
2022-10-18T09:50:50.648Z,4.00
2022-10-18T09:51:54.006Z,4.88
2022-10-18T09:53:03.634Z,3.87
2022-10-18T09:54:10.200Z,3.72
2022-10-18T09:55:16.972Z,3.76
2022-10-18T09:56:41.040Z,3.62
2022-10-18T09:57:50.208Z,3.52
2022-10-18T09:58:53.229Z,3.88
2022-10-18T09:59:57.780Z,3.71
2022-10-18T10:01:01.203Z,2.72
2022-10-18T10:02:05.489Z,3.12
2022-10-18T10:03:15.292Z,2.99
2022-10-18T10:04:18.420Z,2.45
2022-10-18T10:05:21.481Z,3.08
2022-10-18T10:06:29.912Z,2.56
2022-10-18T10:07:39.600Z,2.91
2022-10-18T10:08:46.179Z,2.73
2022-10-18T10:09:55.975Z,2.82
2022-10-18T10:10:59.212Z,3.02
2022-10-18T10:12:02.594Z,3.29
2022-10-18T10:13:09.307Z,2.95
2022-10-18T10:15:28.184Z,2.60
2022-10-18T10:16:30.812Z,3.14
2022-10-18T10:17:34.580Z,2.60
2022-10-18T10:18:39.822Z,3.32
2022-10-18T10:20:07.051Z,2.72
2022-10-18T10:21:15.395Z,2.46
2022-10-18T10:22:21.964Z,2.78
2022-10-18T10:23:31.501Z,2.51
2022-10-18T10:24:50.046Z,2.59
2022-10-18T10:25:59.579Z,3.46
2022-10-18T10:27:05.768Z,3.06
2022-10-18T10:28:18.088Z,2.68
2022-10-18T10:29:44.787Z,2.59
2022-10-18T10:30:46.292Z,2.88
2022-10-18T10:31:52.764Z,2.80
2022-10-18T10:32:56.913Z,2.33
2022-10-18T10:34:15.530Z,3.22
2022-10-18T10:35:35.485Z,2.43
2022-10-18T10:36:30.341Z,2.88
2022-10-18T10:37:36.403Z,3.34
2022-10-18T10:38:39.488Z,3.14
2022-10-18T10:39:45.015Z,2.62
2022-10-18T10:40:49.821Z,3.73
2022-10-18T10:41:55.482Z,3.19
2022-10-18T10:43:18.102Z,3.51
2022-10-18T10:44:22.172Z,3.72
2022-10-18T10:45:28.290Z,3.29
2022-10-18T10:46:36.274Z,3.31
2022-10-18T10:47:39.677Z,3.42
2022-10-18T10:48:49.016Z,3.27
2022-10-18T10:49:53.788Z,3.63
2022-10-18T10:51:00.557Z,3.22
2022-10-18T10:52:08.730Z,3.63
2022-10-18T10:53:29.039Z,3.12
2022-10-18T10:54:35.777Z,3.34
2022-10-18T10:55:38.912Z,3.43
2022-10-18T10:57:00.363Z,3.17
2022-10-18T10:58:03.547Z,2.97
2022-10-18T10:59:21.517Z,2.77
2022-10-18T11:00:44.706Z,2.81
2022-10-18T11:01:49.725Z,3.33
2022-10-18T11:03:05.954Z,3.31
2022-10-18T11:04:04.633Z,3.90
2022-10-18T11:05:23.399Z,3.76
2022-10-18T11:06:45.082Z,3.19
2022-10-18T11:07:50.833Z,3.29
2022-10-18T11:08:56.936Z,3.39
2022-10-18T11:10:06.122Z,3.72
2022-10-18T11:11:22.156Z,3.37
2022-10-18T11:12:51.421Z,3.53
2022-10-18T11:14:24.686Z,2.98
2022-10-18T11:15:21.569Z,3.88
2022-10-18T11:16:37.292Z,3.78
2022-10-18T11:17:46.794Z,3.31
2022-10-18T11:18:52.584Z,3.06
2022-10-18T11:20:23.516Z,3.36
2022-10-18T11:21:30.368Z,3.43
2022-10-18T11:22:37.862Z,2.79
2022-10-18T11:23:43.019Z,3.31
2022-10-18T11:24:46.579Z,2.66
2022-10-18T11:26:05.100Z,2.77
2022-10-18T11:27:28.375Z,3.44
2022-10-18T11:28:38.176Z,3.03
2022-10-18T11:30:16.559Z,3.14
2022-10-18T11:31:52.057Z,2.65
2022-10-18T11:33:20.156Z,3.02
2022-10-18T11:34:56.121Z,2.87
2022-10-18T11:36:09.292Z,3.73
2022-10-18T11:37:46.626Z,3.33
2022-10-18T11:38:56.295Z,3.97
2022-10-18T11:40:17.841Z,3.96
2022-10-18T11:41:27.267Z,3.58
2022-10-18T11:43:07.416Z,3.09
2022-10-18T11:44:29.245Z,2.87
2022-10-18T11:45:55.435Z,3.23
2022-10-18T11:47:11.285Z,2.64
2022-10-18T11:48:27.138Z,2.99
2022-10-18T11:49:45.867Z,3.09
2022-10-18T11:50:58.914Z,3.34
2022-10-18T11:52:11.092Z,2.91
2022-10-18T11:53:51.924Z,3.34
2022-10-18T11:55:00.845Z,3.08
2022-10-18T11:56:16.614Z,3.09
2022-10-18T11:57:44.535Z,3.17
2022-10-18T11:59:10.800Z,4.22
2022-10-18T12:00:30.608Z,3.28
2022-10-18T12:01:43.553Z,3.38
2022-10-18T12:03:02.363Z,3.09
2022-10-18T12:04:20.989Z,2.82
2022-10-18T12:05:25.266Z,3.56
2022-10-18T12:06:32.185Z,2.97
2022-10-18T12:07:41.654Z,2.94
2022-10-18T12:08:50.979Z,2.76
2022-10-18T12:09:55.647Z,3.14
2022-10-18T12:11:06.223Z,3.26
2022-10-18T12:12:19.500Z,3.23
2022-10-18T12:13:29.036Z,3.27
2022-10-18T12:14:41.559Z,3.01
2022-10-18T12:15:45.180Z,2.84
2022-10-18T12:16:52.324Z,3.07
2022-10-18T12:17:58.244Z,3.56
2022-10-18T12:19:04.633Z,3.48
2022-10-18T12:20:27.506Z,4.09
2022-10-18T12:21:34.009Z,4.34
2022-10-18T12:22:52.786Z,3.91
2022-10-18T12:24:05.241Z,4.59
2022-10-18T12:25:15.162Z,4.07
2022-10-18T12:26:19.079Z,4.22
2022-10-18T12:27:31.454Z,4.17
2022-10-18T12:28:38.180Z,4.67
2022-10-18T12:29:51.195Z,3.96
2022-10-18T12:31:03.800Z,4.64
2022-10-18T12:32:10.443Z,4.37
2022-10-18T12:33:27.867Z,5.14
2022-10-18T12:34:31.122Z,6.08
2022-10-18T12:35:37.758Z,6.07
2022-10-18T12:36:44.458Z,5.97
2022-10-18T12:38:11.942Z,6.39
2022-10-18T12:40:47.615Z,5.20
2022-10-18T12:41:54.093Z,5.45
2022-10-18T12:42:57.443Z,5.07
2022-10-18T12:44:07.106Z,5.43
2022-10-18T12:45:22.201Z,6.12
2022-10-18T12:46:28.859Z,5.34
2022-10-18T12:47:32.767Z,5.43
2022-10-18T12:48:48.436Z,5.69
2022-10-18T12:50:01.172Z,5.64
2022-10-18T12:51:16.676Z,4.66
2022-10-18T12:52:23.237Z,6.33
2022-10-18T12:53:28.191Z,5.81
2022-10-18T12:54:34.522Z,5.41
2022-10-18T12:55:40.572Z,4.92
2022-10-18T12:56:46.126Z,5.37
2022-10-18T12:57:55.794Z,5.18
2022-10-18T12:59:17.629Z,5.22
2022-10-18T13:00:33.407Z,5.49
2022-10-18T13:01:55.365Z,5.34
2022-10-18T13:03:19.083Z,5.48
2022-10-18T13:04:32.037Z,5.80
2022-10-18T13:05:55.291Z,5.92
2022-10-18T13:07:02.703Z,5.48
2022-10-18T13:09:45.658Z,5.76
2022-10-18T13:10:52.265Z,5.98
2022-10-18T13:12:10.751Z,5.46
2022-10-18T13:15:05.646Z,6.07
2022-10-18T13:16:03.633Z,6.03
2022-10-18T13:17:31.906Z,6.16
2022-10-18T13:18:44.642Z,6.42
2022-10-18T13:20:27.423Z,6.81
2022-10-18T13:21:46.585Z,7.01
2022-10-18T13:22:59.224Z,7.52
2022-10-18T13:24:37.540Z,6.86
2022-10-18T13:25:56.118Z,6.96
2022-10-18T13:28:37.016Z,6.17
2022-10-18T13:30:18.523Z,6.62
2022-10-18T13:31:31.148Z,7.35
2022-10-18T13:32:57.611Z,7.02
2022-10-18T13:34:30.122Z,6.34
2022-10-18T13:35:57.471Z,6.54
2022-10-18T13:37:06.120Z,5.89
2022-10-18T13:38:47.565Z,6.69
2022-10-18T13:39:52.825Z,5.42
2022-10-18T13:41:08.186Z,5.62
2022-10-18T13:42:17.830Z,6.55
2022-10-18T13:43:41.309Z,6.21
2022-10-18T13:44:45.933Z,7.90
2022-10-18T13:45:55.817Z,7.19
2022-10-18T13:47:02.390Z,7.21
2022-10-18T13:48:31.565Z,7.55
2022-10-18T13:49:50.361Z,8.06
2022-10-18T13:50:57.105Z,7.72
2022-10-18T13:52:12.552Z,7.58
2022-10-18T13:53:24.691Z,7.43
2022-10-18T13:54:47.871Z,7.16
2022-10-18T13:56:11.163Z,7.29
2022-10-18T13:57:40.223Z,7.02
2022-10-18T13:59:13.764Z,6.69
2022-10-18T14:00:19.392Z,6.87
2022-10-18T14:01:41.709Z,6.74
2022-10-18T14:03:01.739Z,7.39
2022-10-18T14:04:26.396Z,6.66
2022-10-18T14:05:33.077Z,7.34
2022-10-18T14:06:42.690Z,6.98
2022-10-18T14:07:46.909Z,6.76
2022-10-18T14:09:25.356Z,5.74
2022-10-18T14:10:43.352Z,5.92
2022-10-18T14:11:54.031Z,5.21
2022-10-18T14:13:00.049Z,6.68
2022-10-18T14:14:15.787Z,6.22
2022-10-18T14:15:28.200Z,5.77
2022-10-18T14:16:40.656Z,5.91
2022-10-18T14:18:05.623Z,5.86
2022-10-18T14:19:30.465Z,5.51
2022-10-18T14:21:08.666Z,5.43
2022-10-18T14:21:57.665Z,5.60
2022-10-18T14:23:19.412Z,6.46
2022-10-18T14:24:25.799Z,6.10
2022-10-18T14:25:37.962Z,5.68
2022-10-18T14:26:41.034Z,5.78
2022-10-18T14:27:44.169Z,6.12
2022-10-18T14:29:05.371Z,5.29
2022-10-18T14:30:17.875Z,6.15
2022-10-18T14:31:20.892Z,6.08
2022-10-18T14:32:29.943Z,5.56
2022-10-18T14:33:58.016Z,5.99
2022-10-18T14:35:30.639Z,5.34
2022-10-18T14:36:17.694Z,5.68
2022-10-18T14:37:30.634Z,5.81
2022-10-18T14:38:36.319Z,5.69
2022-10-18T14:39:39.425Z,5.79
2022-10-18T14:40:42.657Z,6.61
2022-10-18T14:41:53.948Z,6.87
2022-10-18T14:42:58.724Z,6.57
2022-10-18T14:44:20.860Z,6.39
2022-10-18T14:45:23.915Z,8.48
2022-10-18T14:46:29.101Z,6.53
2022-10-18T14:47:35.879Z,7.89
2022-10-18T14:48:38.984Z,8.08
2022-10-18T14:49:44.264Z,6.79
2022-10-18T14:50:50.570Z,7.53
2022-10-18T14:51:57.670Z,7.85
2022-10-18T14:53:06.314Z,8.61
2022-10-18T14:55:24.921Z,8.50
2022-10-18T14:56:34.050Z,7.51
2022-10-18T14:57:37.461Z,8.64
2022-10-18T14:58:41.868Z,9.18
2022-10-18T14:59:49.867Z,9.74
2022-10-18T15:00:53.791Z,9.63
2022-10-18T15:02:00.393Z,9.71
2022-10-18T15:03:06.804Z,9.71
2022-10-18T15:04:11.562Z,9.46
2022-10-18T15:05:19.033Z,8.84
2022-10-18T15:06:22.057Z,8.88
2022-10-18T15:07:27.646Z,9.16
2022-10-18T15:08:36.989Z,9.21
2022-10-18T15:09:40.460Z,8.96
2022-10-18T15:10:43.651Z,8.31
2022-10-18T15:11:47.204Z,8.51
2022-10-18T15:13:08.863Z,8.27
2022-10-18T15:13:59.176Z,8.57
2022-10-18T15:15:03.205Z,8.04
2022-10-18T15:16:07.500Z,8.42
2022-10-18T15:17:29.158Z,8.35
2022-10-18T15:18:32.264Z,8.43
2022-10-18T15:19:38.880Z,9.10
2022-10-18T15:20:42.420Z,9.33
2022-10-18T15:22:30.724Z,10.39
2022-10-18T15:23:20.761Z,10.56
2022-10-18T15:24:33.127Z,10.92
2022-10-18T15:25:36.237Z,11.07
2022-10-18T15:26:42.858Z,11.76
2022-10-18T15:27:49.147Z,13.00
2022-10-18T15:28:53.440Z,13.07
2022-10-18T15:29:56.906Z,13.83
2022-10-18T15:31:01.493Z,15.44
2022-10-18T15:32:17.197Z,16.53
2022-10-18T15:33:23.084Z,16.68
2022-10-18T15:34:27.248Z,18.43
2022-10-18T15:35:32.662Z,22.20
2022-10-18T15:36:36.847Z,26.24
2022-10-18T15:37:42.413Z,27.44
2022-10-18T15:38:47.654Z,34.83
2022-10-18T15:39:53.897Z,42.37
2022-10-18T15:40:57.040Z,39.67
2022-10-18T15:42:01.848Z,44.34
2022-10-18T15:43:08.225Z,48.68
2022-10-18T15:44:34.230Z,49.26
2022-10-18T15:45:39.820Z,54.53
2022-10-18T15:46:43.574Z,61.04
2022-10-18T15:48:08.490Z,65.52
2022-10-18T15:49:26.827Z,68.00
2022-10-18T15:50:41.432Z,64.90
2022-10-18T15:51:49.050Z,65.21
2022-10-18T15:52:52.054Z,63.98
2022-10-18T15:53:55.060Z,61.67
2022-10-18T15:54:59.136Z,61.40
2022-10-18T15:56:08.668Z,59.51
2022-10-18T15:57:11.994Z,60.29